createdAt,value
2022-10-15T00:01:51.073Z,13.70
2022-10-15T00:04:19.388Z,13.80
2022-10-15T00:06:48.107Z,13.80
2022-10-15T00:09:16.368Z,13.80
2022-10-15T00:11:48.657Z,13.70
2022-10-15T00:14:17.338Z,13.60
2022-10-15T00:16:45.871Z,13.50
2022-10-15T00:19:14.249Z,13.50
2022-10-15T00:21:43.110Z,13.50
2022-10-15T00:24:11.542Z,13.30
2022-10-15T00:26:40.057Z,13.40
2022-10-15T00:29:09.957Z,13.30
2022-10-15T00:31:39.290Z,13.20
2022-10-15T00:34:11.328Z,13.20
2022-10-15T00:36:39.732Z,13.20
2022-10-15T00:39:09.050Z,13.10
2022-10-15T00:41:38.908Z,13.10
2022-10-15T00:44:41.220Z,13.20
2022-10-15T00:47:16.678Z,13.30
2022-10-15T00:49:50.911Z,13.20
2022-10-15T00:52:24.763Z,13.10
2022-10-15T00:54:59.179Z,13.00
2022-10-15T00:57:28.030Z,13.00
2022-10-15T01:00:02.044Z,13.00
2022-10-15T01:02:33.309Z,12.90
2022-10-15T01:05:02.144Z,12.90
2022-10-15T01:07:31.874Z,12.90
2022-10-15T01:10:00.852Z,12.90
2022-10-15T01:12:38.637Z,12.90
2022-10-15T01:15:16.919Z,12.80
2022-10-15T01:17:51.623Z,12.80
2022-10-15T01:20:59.019Z,12.80
2022-10-15T01:24:03.904Z,12.80
2022-10-15T01:27:07.034Z,12.70
2022-10-15T01:30:06.512Z,12.70
2022-10-15T01:32:40.345Z,12.70
2022-10-15T01:35:20.187Z,12.70
2022-10-15T01:37:55.128Z,12.70
2022-10-15T01:40:35.434Z,12.70
2022-10-15T01:43:08.320Z,12.70
2022-10-15T01:45:50.261Z,12.80
2022-10-15T01:48:30.736Z,12.70
2022-10-15T01:51:02.073Z,12.80
2022-10-15T01:53:34.378Z,12.80
2022-10-15T01:56:07.423Z,12.80
2022-10-15T01:58:39.677Z,12.70
2022-10-15T02:01:08.577Z,12.70
2022-10-15T02:03:47.866Z,12.70
2022-10-15T02:06:22.125Z,12.70
2022-10-15T02:09:10.860Z,12.70
2022-10-15T02:11:51.080Z,12.70
2022-10-15T02:14:31.060Z,12.70
2022-10-15T02:17:08.094Z,12.70
2022-10-15T02:19:44.507Z,12.70
2022-10-15T02:22:18.904Z,12.70
2022-10-15T02:24:55.738Z,12.70
2022-10-15T02:27:27.829Z,12.80
2022-10-15T02:29:58.555Z,12.80
2022-10-15T02:32:28.107Z,12.70
2022-10-15T02:34:59.589Z,12.80
2022-10-15T02:37:30.482Z,12.80
2022-10-15T02:39:59.276Z,12.80
2022-10-15T02:42:28.397Z,12.80
2022-10-15T02:44:57.128Z,12.90
2022-10-15T02:50:00.629Z,12.90
2022-10-15T02:52:28.910Z,13.00
2022-10-15T02:54:57.492Z,13.00
2022-10-15T02:57:26.190Z,13.00
2022-10-15T02:59:55.926Z,13.10
2022-10-15T03:02:25.625Z,13.10
2022-10-15T03:04:54.206Z,13.20
2022-10-15T03:07:26.478Z,13.20
2022-10-15T03:09:55.629Z,13.30
2022-10-15T03:12:29.903Z,13.30
2022-10-15T03:15:00.348Z,13.40
2022-10-15T03:17:29.993Z,13.40
2022-10-15T03:19:58.317Z,13.40
2022-10-15T03:22:29.192Z,13.40
2022-10-15T03:24:57.493Z,13.40
2022-10-15T03:27:29.140Z,13.40
2022-10-15T03:29:57.434Z,13.40
2022-10-15T03:32:32.917Z,13.40
2022-10-15T03:35:05.798Z,13.40
2022-10-15T03:37:36.707Z,13.40
2022-10-15T03:40:13.526Z,13.50
2022-10-15T03:42:45.115Z,13.50
2022-10-15T03:45:13.554Z,13.50
2022-10-15T03:47:42.223Z,13.60
2022-10-15T03:50:10.933Z,13.60
2022-10-15T03:52:41.331Z,13.60
2022-10-15T03:55:13.892Z,13.60
2022-10-15T03:57:44.686Z,13.60
2022-10-15T04:00:14.713Z,13.60
2022-10-15T04:02:43.615Z,13.60
2022-10-15T04:05:25.149Z,13.70
2022-10-15T04:07:59.800Z,13.70
2022-10-15T04:10:30.469Z,13.70
2022-10-15T04:12:59.568Z,13.70
2022-10-15T04:15:29.040Z,13.80
2022-10-15T04:18:05.352Z,13.80
2022-10-15T04:20:33.735Z,13.80
2022-10-15T04:23:14.364Z,13.80
2022-10-15T04:25:47.136Z,13.90
2022-10-15T04:28:15.697Z,13.90
2022-10-15T04:30:44.068Z,13.90
2022-10-15T04:33:14.572Z,13.90
2022-10-15T04:35:43.250Z,13.90
2022-10-15T04:38:17.415Z,13.90
2022-10-15T04:41:15.798Z,14.00
2022-10-15T04:44:00.732Z,14.00
2022-10-15T04:46:31.425Z,14.00
2022-10-15T04:49:04.422Z,14.10
2022-10-15T04:51:32.821Z,14.00
2022-10-15T04:54:25.379Z,14.10
2022-10-15T04:57:19.642Z,14.10
2022-10-15T04:59:51.442Z,14.20
2022-10-15T05:02:36.362Z,14.20
2022-10-15T05:05:17.875Z,14.30
2022-10-15T05:07:53.432Z,14.30
2022-10-15T05:10:28.109Z,14.40
2022-10-15T05:12:57.269Z,14.40
2022-10-15T05:15:33.532Z,14.40
2022-10-15T05:18:03.560Z,14.40
2022-10-15T05:20:42.049Z,14.50
2022-10-15T05:23:15.246Z,14.60
2022-10-15T05:25:53.293Z,14.60
2022-10-15T05:28:26.547Z,14.60
2022-10-15T05:30:55.380Z,14.60
2022-10-15T05:33:23.654Z,14.70
2022-10-15T05:35:52.252Z,14.60
2022-10-15T05:38:22.910Z,14.60
2022-10-15T05:40:52.915Z,14.60
2022-10-15T05:43:25.455Z,14.60
2022-10-15T05:45:55.268Z,14.60
2022-10-15T05:48:24.799Z,14.60
2022-10-15T05:50:53.537Z,14.60
2022-10-15T05:53:27.736Z,14.60
2022-10-15T05:56:02.425Z,14.60
2022-10-15T05:58:37.294Z,14.60
2022-10-15T06:01:09.496Z,14.60
2022-10-15T06:03:40.544Z,14.60
2022-10-15T06:06:15.623Z,14.70
2022-10-15T06:08:44.509Z,14.70
2022-10-15T06:11:14.271Z,14.70
2022-10-15T06:13:43.906Z,14.70
2022-10-15T06:16:14.780Z,14.80
2022-10-15T06:18:45.406Z,14.80
2022-10-15T06:21:14.147Z,14.70
2022-10-15T06:23:42.632Z,14.70
2022-10-15T06:26:12.853Z,14.70
2022-10-15T06:28:44.721Z,14.70
2022-10-15T06:31:13.512Z,14.80
2022-10-15T06:33:41.970Z,14.70
2022-10-15T06:36:13.948Z,14.70
2022-10-15T06:38:44.106Z,14.80
2022-10-15T06:41:13.101Z,14.80
2022-10-15T06:43:41.382Z,14.80
2022-10-15T06:46:12.875Z,14.70
2022-10-15T06:48:41.119Z,14.80
2022-10-15T06:51:09.645Z,14.80
2022-10-15T06:53:40.669Z,14.70
2022-10-15T06:56:09.312Z,14.70
2022-10-15T06:58:42.263Z,14.70
2022-10-15T07:01:11.935Z,14.80
2022-10-15T07:03:40.288Z,14.80
2022-10-15T07:06:11.523Z,14.90
2022-10-15T07:08:41.656Z,14.90
2022-10-15T07:11:10.613Z,14.90
2022-10-15T07:13:39.768Z,15.00
2022-10-15T07:16:11.176Z,15.00
2022-10-15T07:18:41.673Z,15.00
2022-10-15T07:23:44.833Z,15.00
2022-10-15T07:26:13.501Z,15.00
2022-10-15T07:28:42.161Z,15.10
2022-10-15T07:31:10.863Z,15.10
2022-10-15T07:33:43.400Z,15.20
2022-10-15T07:36:13.456Z,15.20
2022-10-15T07:38:44.219Z,15.20
2022-10-15T07:41:12.719Z,15.20
2022-10-15T07:43:45.284Z,15.10
2022-10-15T07:46:13.617Z,15.10
2022-10-15T07:48:43.286Z,15.10
2022-10-15T07:51:12.921Z,15.10
2022-10-15T07:53:41.372Z,15.00
2022-10-15T07:56:13.913Z,15.10
2022-10-15T07:58:43.169Z,15.10
2022-10-15T08:01:12.740Z,15.10
2022-10-15T08:03:41.149Z,15.10
2022-10-15T08:06:11.528Z,15.10
2022-10-15T08:08:40.095Z,15.00
2022-10-15T08:11:10.268Z,15.00
2022-10-15T08:13:41.531Z,15.10
2022-10-15T08:16:11.296Z,15.10
2022-10-15T08:18:40.166Z,15.10
2022-10-15T08:21:09.303Z,15.20
2022-10-15T08:23:39.355Z,15.20
2022-10-15T08:26:09.123Z,15.20
2022-10-15T08:28:38.060Z,15.20
2022-10-15T08:31:06.863Z,15.20
2022-10-15T08:33:37.008Z,15.30
2022-10-15T08:36:06.480Z,15.30
2022-10-15T08:38:35.598Z,15.30
2022-10-15T08:41:19.222Z,15.40
2022-10-15T08:43:48.675Z,15.40
2022-10-15T08:46:23.457Z,15.40
2022-10-15T08:48:56.686Z,15.40
2022-10-15T08:51:27.841Z,15.50
2022-10-15T08:54:00.575Z,15.40
2022-10-15T08:56:34.720Z,15.30
2022-10-15T08:59:15.937Z,15.30
2022-10-15T09:01:49.752Z,15.00
2022-10-15T09:04:31.472Z,14.90
2022-10-15T09:07:08.505Z,14.80
2022-10-15T09:09:44.924Z,14.80
2022-10-15T09:12:29.212Z,14.80
2022-10-15T09:15:01.097Z,14.80
2022-10-15T09:17:36.197Z,14.90
2022-10-15T09:20:08.380Z,14.80
2022-10-15T09:22:36.942Z,14.80
2022-10-15T09:25:16.712Z,14.90
2022-10-15T09:27:48.386Z,15.00
2022-10-15T09:30:32.047Z,15.10
2022-10-15T09:33:08.348Z,15.30
2022-10-15T09:35:42.280Z,15.40
2022-10-15T09:38:26.041Z,15.40
2022-10-15T09:43:47.996Z,15.60
2022-10-15T09:46:17.126Z,15.70
2022-10-15T09:48:50.077Z,15.80
2022-10-15T09:51:26.530Z,15.90
2022-10-15T09:54:04.311Z,16.10
2022-10-15T09:56:37.466Z,16.20
2022-10-15T09:59:09.753Z,16.40
2022-10-15T10:01:38.758Z,16.50
2022-10-15T10:04:17.250Z,16.60
2022-10-15T10:06:48.742Z,16.70
2022-10-15T10:09:20.573Z,16.70
2022-10-15T10:11:52.936Z,16.90
2022-10-15T10:14:37.290Z,17.00
2022-10-15T10:17:14.062Z,17.30
2022-10-15T10:19:42.937Z,17.60
2022-10-15T10:22:18.710Z,17.80
2022-10-15T10:24:48.476Z,17.90
2022-10-15T10:27:22.549Z,18.00
2022-10-15T10:29:59.781Z,18.30
2022-10-15T10:32:31.509Z,18.70
2022-10-15T10:35:00.864Z,19.60
2022-10-15T10:37:43.616Z,20.60
2022-10-15T10:40:27.098Z,21.30
2022-10-15T10:43:12.939Z,21.00
2022-10-15T10:45:54.371Z,20.90
2022-10-15T10:48:25.184Z,21.30
2022-10-15T10:51:11.939Z,21.40
2022-10-15T10:53:55.962Z,21.60
2022-10-15T10:56:29.197Z,21.90
2022-10-15T10:59:11.640Z,22.00
2022-10-15T11:01:41.429Z,22.30
2022-10-15T11:04:16.963Z,21.90
2022-10-15T11:07:01.233Z,21.60
2022-10-15T11:09:56.544Z,21.20
2022-10-15T11:12:51.306Z,21.00
2022-10-15T11:15:30.838Z,20.90
2022-10-15T11:18:23.908Z,20.80
2022-10-15T11:21:06.834Z,20.60
2022-10-15T11:23:54.217Z,20.40
2022-10-15T11:26:52.014Z,20.20
2022-10-15T11:29:47.721Z,20.10
2022-10-15T11:32:28.476Z,20.00
2022-10-15T11:35:41.052Z,19.90
2022-10-15T11:38:18.738Z,19.80
2022-10-15T11:41:00.477Z,19.70
2022-10-15T11:43:41.073Z,19.60
2022-10-15T11:46:21.577Z,19.60
2022-10-15T11:49:03.506Z,19.80
2022-10-15T11:51:42.818Z,19.90
2022-10-15T11:54:24.355Z,20.00
2022-10-15T11:56:56.842Z,20.00
2022-10-15T11:59:33.963Z,20.10
2022-10-15T12:02:06.975Z,20.30
2022-10-15T12:04:42.041Z,20.30
2022-10-15T12:07:17.273Z,20.40
2022-10-15T12:09:53.288Z,20.30
2022-10-15T12:12:32.087Z,20.30
2022-10-15T12:15:21.604Z,20.10
2022-10-15T12:17:57.134Z,20.00
2022-10-15T12:20:28.769Z,20.20
2022-10-15T12:23:02.419Z,20.30
2022-10-15T12:25:43.519Z,20.40
2022-10-15T12:28:21.590Z,20.40
2022-10-15T12:31:01.516Z,20.30
2022-10-15T12:33:36.166Z,20.20
2022-10-15T12:36:09.466Z,20.00
2022-10-15T12:38:42.715Z,20.00
2022-10-15T12:41:13.292Z,20.00
2022-10-15T12:43:47.680Z,20.50
2022-10-15T12:46:16.107Z,20.90
2022-10-15T12:48:45.688Z,21.10
2022-10-15T12:51:38.411Z,22.30
2022-10-15T12:54:38.477Z,23.40
2022-10-15T12:57:27.051Z,23.40
2022-10-15T12:59:58.863Z,23.40
2022-10-15T13:02:38.666Z,24.20
2022-10-15T13:05:09.246Z,25.20
2022-10-15T13:07:41.731Z,26.20
2022-10-15T13:10:21.684Z,26.30
2022-10-15T13:12:55.213Z,25.20
2022-10-15T13:15:26.631Z,23.80
2022-10-15T13:17:57.120Z,22.90
2022-10-15T13:20:30.252Z,22.10
2022-10-15T13:23:25.687Z,21.60
2022-10-15T13:26:20.779Z,21.20
2022-10-15T13:28:50.714Z,20.80
2022-10-15T13:31:27.565Z,20.70
2022-10-15T13:34:01.959Z,20.70
2022-10-15T13:36:34.370Z,20.60
2022-10-15T13:39:07.725Z,20.40
2022-10-15T13:41:40.572Z,20.20
2022-10-15T13:44:22.016Z,20.20
2022-10-15T13:46:50.993Z,20.70
2022-10-15T13:49:20.935Z,20.80
2022-10-15T13:51:53.011Z,20.70
2022-10-15T13:54:22.870Z,20.60
2022-10-15T13:56:55.795Z,20.30
2022-10-15T13:59:25.182Z,20.10
2022-10-15T14:02:00.836Z,20.00
2022-10-15T14:04:31.397Z,19.80
2022-10-15T14:07:03.404Z,19.80
2022-10-15T14:09:34.839Z,19.70
2022-10-15T14:12:07.113Z,19.60
2022-10-15T14:14:37.444Z,19.50
2022-10-15T14:17:07.256Z,19.40
2022-10-15T14:19:37.112Z,19.40
2022-10-15T14:22:05.969Z,19.30
2022-10-15T14:24:36.456Z,19.20
2022-10-15T14:27:08.889Z,19.20
2022-10-15T14:29:40.861Z,19.10
2022-10-15T14:32:24.553Z,19.10
2022-10-15T14:34:54.328Z,19.10
2022-10-15T14:37:31.481Z,19.10
2022-10-15T14:40:22.513Z,19.10
2022-10-15T14:43:05.452Z,19.10
2022-10-15T14:45:41.381Z,19.10
2022-10-15T14:48:12.467Z,19.10
2022-10-15T14:50:44.021Z,19.00
2022-10-15T14:53:18.999Z,19.00
2022-10-15T14:55:52.321Z,19.00
2022-10-15T14:58:24.701Z,19.10
2022-10-15T15:00:58.246Z,19.10
2022-10-15T15:03:31.780Z,19.00
2022-10-15T15:06:00.520Z,19.00
2022-10-15T15:08:29.362Z,19.00
2022-10-15T15:11:00.977Z,19.00
2022-10-15T15:13:34.288Z,18.90
2022-10-15T15:16:03.831Z,18.80
2022-10-15T15:18:32.770Z,18.80
2022-10-15T15:21:06.081Z,18.80
2022-10-15T15:23:36.153Z,18.70
2022-10-15T15:26:05.692Z,18.60
2022-10-15T15:28:36.091Z,18.60
2022-10-15T15:31:07.772Z,18.60
2022-10-15T15:33:36.312Z,18.50
2022-10-15T15:36:08.382Z,18.50
2022-10-15T15:38:36.758Z,18.50
2022-10-15T15:41:14.044Z,18.40
2022-10-15T15:43:44.445Z,18.40
2022-10-15T15:46:13.627Z,18.40
2022-10-15T15:48:42.189Z,18.40
2022-10-15T15:51:21.149Z,18.40
2022-10-15T15:53:49.561Z,18.40
2022-10-15T15:56:18.393Z,18.30
2022-10-15T15:58:50.507Z,18.30
2022-10-15T16:01:18.977Z,18.20
2022-10-15T16:03:48.592Z,18.10
2022-10-15T16:06:17.421Z,18.10
2022-10-15T16:08:46.223Z,18.00
2022-10-15T16:11:14.583Z,17.90
2022-10-15T16:13:45.508Z,17.90
2022-10-15T16:16:15.204Z,17.70
2022-10-15T16:18:44.184Z,17.70
2022-10-15T16:21:15.715Z,17.60
2022-10-15T16:23:44.595Z,17.70
2022-10-15T16:26:13.733Z,17.70
2022-10-15T16:28:42.065Z,17.70
2022-10-15T16:31:20.638Z,17.70
2022-10-15T16:33:49.408Z,17.70
2022-10-15T16:36:19.693Z,17.70
2022-10-15T16:38:48.753Z,17.80
2022-10-15T16:41:21.797Z,17.80
2022-10-15T16:43:50.406Z,17.80
2022-10-15T16:46:21.547Z,17.80
2022-10-15T16:48:55.209Z,17.80
2022-10-15T16:51:25.377Z,17.80
2022-10-15T16:53:54.626Z,17.80
2022-10-15T16:56:25.415Z,17.80
2022-10-15T16:58:54.143Z,17.80
2022-10-15T17:01:26.072Z,17.70
2022-10-15T17:03:54.778Z,17.60
2022-10-15T17:06:24.658Z,17.70
2022-10-15T17:08:54.721Z,17.60
2022-10-15T17:11:24.876Z,17.60
2022-10-15T17:13:56.069Z,17.50
2022-10-15T17:16:26.551Z,17.50
2022-10-15T17:18:56.318Z,17.50
2022-10-15T17:21:27.182Z,17.40
2022-10-15T17:23:57.754Z,17.40
2022-10-15T17:26:28.546Z,17.30
2022-10-15T17:28:57.913Z,17.20
2022-10-15T17:31:28.178Z,17.20
2022-10-15T17:33:58.577Z,17.10
2022-10-15T17:36:28.464Z,17.10
2022-10-15T17:38:58.143Z,17.10
2022-10-15T17:41:28.529Z,17.20
2022-10-15T17:43:58.158Z,17.10
2022-10-15T17:46:30.459Z,17.10
2022-10-15T17:48:59.969Z,17.10
2022-10-15T17:51:30.725Z,17.00
2022-10-15T17:54:02.066Z,16.90
2022-10-15T17:56:33.593Z,16.80
2022-10-15T17:59:06.373Z,16.80
2022-10-15T18:01:58.424Z,16.80
2022-10-15T18:04:27.446Z,16.80
2022-10-15T18:06:56.137Z,16.80
2022-10-15T18:09:29.001Z,16.90
2022-10-15T18:12:01.031Z,16.90
2022-10-15T18:14:31.586Z,17.00
2022-10-15T18:17:01.325Z,17.10
2022-10-15T18:19:30.422Z,17.20
2022-10-15T18:21:58.772Z,17.20
2022-10-15T18:24:27.769Z,17.20
2022-10-15T18:26:56.563Z,17.10
2022-10-15T18:29:25.495Z,17.10
2022-10-15T18:31:57.932Z,17.10
2022-10-15T18:34:30.385Z,17.20
2022-10-15T18:36:59.223Z,17.30
2022-10-15T18:39:27.878Z,17.40
2022-10-15T18:41:56.906Z,17.50
2022-10-15T18:44:27.693Z,17.50
2022-10-15T18:46:56.528Z,17.40
2022-10-15T18:49:24.812Z,17.40
2022-10-15T18:51:55.443Z,17.40
2022-10-15T18:54:24.384Z,17.20
2022-10-15T18:56:53.622Z,17.20
2022-10-15T18:59:22.749Z,17.00
2022-10-15T19:01:53.721Z,16.80
2022-10-15T19:04:24.136Z,16.60
2022-10-15T19:06:55.231Z,16.50
2022-10-15T19:09:26.605Z,16.50
2022-10-15T19:11:56.624Z,16.50
2022-10-15T19:14:28.311Z,16.40
2022-10-15T19:16:57.933Z,16.30
2022-10-15T19:19:27.979Z,16.30
2022-10-15T19:22:00.571Z,16.30
2022-10-15T19:24:29.240Z,16.30
2022-10-15T19:26:57.800Z,16.20
2022-10-15T19:29:26.151Z,16.20
2022-10-15T19:31:57.052Z,16.10
2022-10-15T19:34:25.304Z,16.10
2022-10-15T19:36:54.188Z,16.10
2022-10-15T19:39:25.420Z,16.10
2022-10-15T19:41:54.694Z,16.10
2022-10-15T19:44:25.474Z,16.10
2022-10-15T19:46:56.041Z,16.20
2022-10-15T19:49:25.222Z,16.20
2022-10-15T19:51:55.707Z,16.20
2022-10-15T19:56:59.165Z,16.20
2022-10-15T19:59:27.596Z,16.20
2022-10-15T20:01:55.960Z,16.20
2022-10-15T20:04:24.404Z,16.20
2022-10-15T20:06:52.889Z,16.10
2022-10-15T20:09:21.633Z,16.10
2022-10-15T20:11:51.268Z,16.10
2022-10-15T20:14:20.474Z,16.10
2022-10-15T20:16:48.772Z,16.00
2022-10-15T20:19:17.581Z,16.00
2022-10-15T20:21:45.842Z,16.00
2022-10-15T20:24:14.493Z,16.00
2022-10-15T20:26:43.768Z,16.00
2022-10-15T20:29:17.627Z,15.90
2022-10-15T20:31:45.910Z,15.90
2022-10-15T20:34:14.397Z,15.90
2022-10-15T20:36:42.859Z,15.80
2022-10-15T20:39:11.359Z,15.80
2022-10-15T20:41:39.975Z,15.80
2022-10-15T20:44:13.550Z,15.80
2022-10-15T20:46:46.650Z,15.80
2022-10-15T20:49:18.709Z,15.90
2022-10-15T20:51:47.171Z,15.90
2022-10-15T20:54:16.680Z,15.90
2022-10-15T20:56:45.104Z,15.80
2022-10-15T20:59:15.131Z,15.80
2022-10-15T21:01:44.288Z,15.70
2022-10-15T21:04:13.672Z,15.60
2022-10-15T21:06:42.481Z,15.60
2022-10-15T21:09:10.928Z,15.50
2022-10-15T21:11:42.287Z,15.50
2022-10-15T21:14:11.314Z,15.60
2022-10-15T21:16:41.378Z,15.70
2022-10-15T21:19:10.004Z,15.60
2022-10-15T21:21:39.476Z,15.70
2022-10-15T21:24:07.968Z,15.80
2022-10-15T21:26:36.800Z,15.90
2022-10-15T21:29:05.298Z,15.90
2022-10-15T21:31:33.927Z,15.90
2022-10-15T21:34:03.570Z,15.90
2022-10-15T21:36:32.183Z,15.80
2022-10-15T21:39:02.488Z,15.90
2022-10-15T21:41:32.980Z,15.90
2022-10-15T21:44:02.654Z,15.80
2022-10-15T21:46:32.632Z,15.80
2022-10-15T21:49:04.083Z,15.90
2022-10-15T21:51:34.549Z,16.00
2022-10-15T21:54:04.578Z,16.00
2022-10-15T21:56:33.938Z,15.90
2022-10-15T21:59:02.354Z,15.70
2022-10-15T22:01:33.124Z,15.40
2022-10-15T22:04:02.667Z,14.80
2022-10-15T22:06:33.171Z,14.90
2022-10-15T22:09:02.605Z,14.90
2022-10-15T22:11:32.935Z,15.00
2022-10-15T22:14:04.596Z,15.00
2022-10-15T22:16:35.209Z,15.00
2022-10-15T22:19:04.179Z,15.00
2022-10-15T22:21:36.377Z,15.00
2022-10-15T22:24:07.009Z,15.00
2022-10-15T22:26:39.249Z,14.90
2022-10-15T22:29:11.148Z,14.90
2022-10-15T22:31:39.500Z,14.90
2022-10-15T22:34:07.985Z,15.00
2022-10-15T22:36:37.571Z,15.00
2022-10-15T22:39:08.058Z,14.90
2022-10-15T22:41:39.862Z,14.90
2022-10-15T22:44:10.700Z,14.90
2022-10-15T22:46:39.967Z,14.90
2022-10-15T22:49:09.697Z,15.10
2022-10-15T22:51:39.442Z,15.10
2022-10-15T22:54:08.426Z,15.10
2022-10-15T22:56:37.900Z,15.20
2022-10-15T22:59:06.860Z,15.20
2022-10-15T23:01:36.320Z,15.20
2022-10-15T23:04:07.520Z,15.30
2022-10-15T23:06:38.451Z,15.30
2022-10-15T23:09:09.813Z,15.30
2022-10-15T23:11:40.847Z,15.40
2022-10-15T23:14:12.227Z,15.40
2022-10-15T23:16:43.057Z,15.50
2022-10-15T23:19:16.946Z,15.50
2022-10-15T23:21:47.345Z,15.50
2022-10-15T23:24:19.398Z,15.60
2022-10-15T23:26:48.184Z,15.70
2022-10-15T23:29:19.482Z,15.80
2022-10-15T23:31:49.850Z,15.80
2022-10-15T23:34:20.480Z,15.80
2022-10-15T23:36:49.344Z,15.70
2022-10-15T23:39:21.376Z,15.60
2022-10-15T23:41:50.114Z,15.50
2022-10-15T23:44:19.477Z,15.40
2022-10-15T23:46:48.776Z,15.30
2022-10-15T23:49:17.070Z,15.10
2022-10-15T23:51:45.911Z,14.90
2022-10-15T23:54:16.448Z,14.70
2022-10-15T23:56:47.815Z,14.70
2022-10-15T23:59:17.448Z,14.60
